createdAt,value
2023-03-27T00:01:40.181Z,84830.25
2023-03-27T00:04:06.346Z,84836.97
2023-03-27T00:06:32.550Z,84835.44
2023-03-27T00:08:58.980Z,84833.22
2023-03-27T00:11:25.330Z,84840.16
2023-03-27T00:13:51.778Z,84831.75
2023-03-27T00:16:17.939Z,84827.41
2023-03-27T00:18:44.209Z,84838.47
2023-03-27T00:21:10.649Z,84836.88
2023-03-27T00:23:36.865Z,84836.75
2023-03-27T00:26:03.095Z,84849.59
2023-03-27T00:28:29.285Z,84850.66
2023-03-27T00:30:55.776Z,84858.69
2023-03-27T00:33:22.380Z,84863.69
2023-03-27T00:35:48.499Z,84864.75
2023-03-27T00:38:14.673Z,84872.91
2023-03-27T00:40:40.814Z,84879.53
2023-03-27T00:43:07.064Z,84891.94
2023-03-27T00:45:33.498Z,84898.53
2023-03-27T00:47:59.649Z,84899.22
2023-03-27T00:50:25.810Z,84889.31
2023-03-27T00:52:52.258Z,84890.47
2023-03-27T00:55:18.340Z,84899.72
2023-03-27T00:57:44.439Z,84904.19
2023-03-27T01:00:10.549Z,84898.81
2023-03-27T01:02:36.731Z,84902.53
2023-03-27T01:05:02.970Z,84897.81
2023-03-27T01:07:29.068Z,84894.72
2023-03-27T01:09:55.173Z,84892.13
2023-03-27T01:12:21.328Z,84897.09
2023-03-27T01:14:47.452Z,84884.81
2023-03-27T01:17:13.687Z,84875.56
2023-03-27T01:19:39.863Z,84864.28
2023-03-27T01:22:06.306Z,84866.22
2023-03-27T01:24:32.411Z,84862.69
2023-03-27T01:26:58.559Z,84866.34
2023-03-27T01:29:24.815Z,84863.13
2023-03-27T01:31:50.932Z,84863.44
2023-03-27T01:34:17.493Z,84855.09
2023-03-27T01:36:43.589Z,84850.44
2023-03-27T01:39:09.792Z,84850.28
2023-03-27T01:41:35.896Z,84849.19
2023-03-27T01:44:02.329Z,84858.84
2023-03-27T01:46:28.817Z,84866.25
2023-03-27T01:48:54.991Z,84873.97
2023-03-27T01:51:21.431Z,84877.69
2023-03-27T01:53:47.553Z,84887.69
2023-03-27T01:56:13.720Z,84876.59
2023-03-27T01:58:39.826Z,84886.22
2023-03-27T02:01:06.197Z,84883.28
2023-03-27T02:03:32.537Z,84875.19
2023-03-27T02:05:58.868Z,84886.69
2023-03-27T02:08:24.991Z,84882.75
2023-03-27T02:10:51.081Z,84885.81
2023-03-27T02:13:17.234Z,84884.81
2023-03-27T02:15:43.343Z,84886.66
2023-03-27T02:18:09.438Z,84894.66
2023-03-27T02:20:35.534Z,84897.34
2023-03-27T02:23:01.712Z,84893.56
2023-03-27T02:25:27.973Z,84900.09
2023-03-27T02:27:54.077Z,84900.84
2023-03-27T02:30:20.297Z,84900.56
2023-03-27T02:32:46.644Z,84900.28
2023-03-27T02:35:12.848Z,84913.88
2023-03-27T02:37:39.041Z,84914.38
2023-03-27T02:40:05.141Z,84907.94
2023-03-27T02:42:31.233Z,84902.91
2023-03-27T02:44:57.685Z,84903.19
2023-03-27T02:47:23.789Z,84909.63
2023-03-27T02:49:49.878Z,84906.75
2023-03-27T02:52:16.012Z,84896.78
2023-03-27T02:54:42.109Z,84902.25
2023-03-27T02:57:08.262Z,84905.38
2023-03-27T02:59:34.448Z,84909.81
2023-03-27T03:02:00.601Z,84902.69
2023-03-27T03:04:26.702Z,84888.47
2023-03-27T03:06:52.832Z,84898.13
2023-03-27T03:09:18.944Z,84886.50
2023-03-27T03:11:45.246Z,84887.88
2023-03-27T03:14:11.376Z,84888.56
2023-03-27T03:16:37.591Z,84897.50
2023-03-27T03:19:03.700Z,84898.75
2023-03-27T03:21:29.807Z,84888.38
2023-03-27T03:23:57.767Z,84892.78
2023-03-27T03:26:24.691Z,84888.28
2023-03-27T03:29:00.292Z,84901.81
2023-03-27T03:33:53.706Z,84905.22
2023-03-27T03:36:19.800Z,84904.19
2023-03-27T03:38:46.213Z,84905.41
2023-03-27T03:41:12.297Z,84909.94
2023-03-27T03:43:38.405Z,84918.72
2023-03-27T03:46:04.540Z,84920.38
2023-03-27T03:48:30.694Z,84926.97
2023-03-27T03:50:56.928Z,84932.25
2023-03-27T03:53:23.279Z,84934.84
2023-03-27T03:55:49.467Z,84947.63
2023-03-27T03:58:15.642Z,84945.22
2023-03-27T04:00:41.750Z,84943.34
2023-03-27T04:03:07.936Z,84944.53
2023-03-27T04:05:34.099Z,84948.78
2023-03-27T04:08:00.251Z,84962.69
2023-03-27T04:10:26.676Z,84973.72
2023-03-27T04:12:52.776Z,84973.00
2023-03-27T04:15:18.881Z,84970.00
2023-03-27T04:17:45.150Z,84969.81
2023-03-27T04:20:11.279Z,84971.94
2023-03-27T04:22:37.396Z,84973.78
2023-03-27T04:25:03.550Z,84971.63
2023-03-27T04:27:29.665Z,84974.41
2023-03-27T04:29:56.105Z,84971.59
2023-03-27T04:32:22.364Z,84973.53
2023-03-27T04:34:48.528Z,84970.69
2023-03-27T04:37:14.671Z,84976.78
2023-03-27T04:39:40.812Z,84961.63
2023-03-27T04:42:06.921Z,84971.09
2023-03-27T04:44:33.007Z,84971.72
2023-03-27T04:46:59.236Z,84972.41
2023-03-27T04:49:25.480Z,84972.41
2023-03-27T04:51:51.574Z,84975.66
2023-03-27T04:54:17.688Z,84985.38
2023-03-27T04:56:43.858Z,84987.03
2023-03-27T04:59:09.993Z,84989.63
2023-03-27T05:01:36.320Z,85000.00
2023-03-27T05:04:02.734Z,85007.09
2023-03-27T05:06:29.062Z,85018.66
2023-03-27T05:08:55.157Z,85021.00
2023-03-27T05:11:21.310Z,85025.75
2023-03-27T05:13:47.539Z,85034.22
2023-03-27T05:16:13.690Z,85044.56
2023-03-27T05:18:41.988Z,85043.41
2023-03-27T05:21:08.328Z,85046.28
2023-03-27T05:23:34.433Z,85055.69
2023-03-27T05:26:01.092Z,85050.97
2023-03-27T05:28:27.290Z,85051.25
2023-03-27T05:30:53.689Z,85053.13
2023-03-27T05:33:19.874Z,85063.50
2023-03-27T05:35:45.999Z,85078.63
2023-03-27T05:38:12.115Z,85077.94
2023-03-27T05:40:38.628Z,85074.81
2023-03-27T05:43:04.747Z,85089.41
2023-03-27T05:45:30.872Z,85087.78
2023-03-27T05:47:57.346Z,85095.59
2023-03-27T05:50:23.472Z,85095.69
2023-03-27T05:52:49.595Z,85099.84
2023-03-27T05:55:15.701Z,85105.78
2023-03-27T05:57:41.914Z,85096.09
2023-03-27T06:00:08.136Z,85102.03
2023-03-27T06:02:34.295Z,85111.69
2023-03-27T06:05:00.558Z,85111.22
2023-03-27T06:07:26.679Z,85124.00
2023-03-27T06:09:52.823Z,85126.59
2023-03-27T06:12:18.930Z,85117.38
2023-03-27T06:14:45.017Z,85124.94
2023-03-27T06:17:11.148Z,85119.97
2023-03-27T06:19:37.264Z,85120.91
2023-03-27T06:22:03.385Z,85116.59
2023-03-27T06:24:29.824Z,85131.47
2023-03-27T06:26:55.916Z,85133.78
2023-03-27T06:29:22.468Z,85130.84
2023-03-27T06:31:48.583Z,85123.50
2023-03-27T06:34:14.671Z,85117.03
2023-03-27T06:36:40.779Z,85126.53
2023-03-27T06:39:06.864Z,85119.31
2023-03-27T06:41:33.220Z,85115.50
2023-03-27T06:43:59.344Z,85113.59
2023-03-27T06:46:32.230Z,85118.56
2023-03-27T06:49:05.134Z,85108.47
2023-03-27T06:51:31.249Z,85116.69
2023-03-27T06:53:57.350Z,85116.16
2023-03-27T06:56:23.456Z,85130.97
2023-03-27T06:58:49.562Z,85131.03
2023-03-27T07:01:15.715Z,85133.25
2023-03-27T07:03:41.797Z,85138.25
2023-03-27T07:06:07.931Z,85144.25
2023-03-27T07:08:34.122Z,85147.63
2023-03-27T07:11:11.627Z,85165.97
2023-03-27T07:13:38.565Z,85158.22
2023-03-27T07:16:04.826Z,85168.13
2023-03-27T07:18:31.002Z,85196.56
2023-03-27T07:20:57.413Z,85196.63
2023-03-27T07:23:23.664Z,85203.59
2023-03-27T07:25:49.768Z,85203.25
2023-03-27T07:28:15.862Z,85205.66
2023-03-27T07:30:41.948Z,85218.28
2023-03-27T07:33:08.226Z,85220.41
2023-03-27T07:35:34.502Z,85214.16
2023-03-27T07:38:00.645Z,85232.38
2023-03-27T07:40:38.947Z,85239.13
2023-03-27T07:43:06.160Z,85252.03
2023-03-27T07:45:32.326Z,85251.25
2023-03-27T07:47:58.796Z,85241.59
2023-03-27T07:50:25.019Z,85239.75
2023-03-27T07:52:51.252Z,85241.78
2023-03-27T07:55:17.439Z,85259.59
2023-03-27T07:57:57.231Z,85277.78
2023-03-27T08:00:26.476Z,85280.44
2023-03-27T08:02:52.716Z,85289.59
2023-03-27T08:05:18.902Z,85293.72
2023-03-27T08:07:45.001Z,85293.09
2023-03-27T08:10:11.166Z,85297.50
2023-03-27T08:12:37.296Z,85283.28
2023-03-27T08:15:03.434Z,85277.41
2023-03-27T08:17:29.616Z,85288.78
2023-03-27T08:19:55.785Z,85289.16
2023-03-27T08:22:21.866Z,85298.97
2023-03-27T08:24:48.021Z,85297.25
2023-03-27T08:27:14.120Z,85303.84
2023-03-27T08:29:40.243Z,85308.16
2023-03-27T08:32:09.621Z,85320.38
2023-03-27T08:34:35.718Z,85321.97
2023-03-27T08:37:01.875Z,85311.41
2023-03-27T08:39:28.074Z,85324.19
2023-03-27T08:41:54.237Z,85323.31
2023-03-27T08:44:20.339Z,85315.66
2023-03-27T08:46:47.872Z,85304.16
2023-03-27T08:49:14.050Z,85317.44
2023-03-27T08:51:40.149Z,85322.31
2023-03-27T08:54:06.265Z,85313.31
2023-03-27T08:56:32.365Z,85319.63
2023-03-27T08:58:58.466Z,85331.97
2023-03-27T09:01:24.621Z,85335.94
2023-03-27T09:03:50.822Z,85340.75
2023-03-27T09:06:17.004Z,85357.63
2023-03-27T09:08:43.095Z,85374.88
2023-03-27T09:11:09.323Z,85369.66
2023-03-27T09:13:35.566Z,85371.84
2023-03-27T09:16:01.708Z,85380.03
2023-03-27T09:18:27.869Z,85371.09
2023-03-27T09:20:53.990Z,85374.22
2023-03-27T09:23:21.134Z,85382.00
2023-03-27T09:25:47.393Z,85377.28
2023-03-27T09:28:13.504Z,85382.94
2023-03-27T09:30:39.623Z,85380.06
2023-03-27T09:33:05.847Z,85395.28
2023-03-27T09:35:32.065Z,85388.88
2023-03-27T09:37:58.303Z,85395.63
2023-03-27T09:40:24.398Z,85388.75
2023-03-27T09:42:50.489Z,85387.72
2023-03-27T09:45:16.602Z,85386.91
2023-03-27T09:47:42.794Z,85392.75
2023-03-27T09:50:08.937Z,85388.44
2023-03-27T09:52:35.045Z,85376.31
2023-03-27T09:55:01.166Z,85373.84
2023-03-27T09:57:27.257Z,85380.25
2023-03-27T09:59:53.446Z,85387.88
2023-03-27T10:02:19.564Z,85390.47
2023-03-27T10:04:45.696Z,85386.88
2023-03-27T10:07:11.795Z,85383.94
2023-03-27T10:09:38.072Z,85386.63
2023-03-27T10:12:04.153Z,85378.63
2023-03-27T10:14:30.258Z,85379.81
2023-03-27T10:16:56.403Z,85387.34
2023-03-27T10:19:22.514Z,85398.41
2023-03-27T10:21:48.621Z,85399.13
2023-03-27T10:24:14.704Z,85394.47
2023-03-27T10:26:40.824Z,85405.06
2023-03-27T10:29:06.922Z,85412.19
2023-03-27T10:31:33.091Z,85412.19
2023-03-27T10:33:59.255Z,85409.09
2023-03-27T10:36:25.361Z,85409.41
2023-03-27T10:38:51.476Z,85422.47
2023-03-27T10:41:17.622Z,85424.63
2023-03-27T10:43:55.002Z,85423.19
2023-03-27T10:46:21.121Z,85421.41
2023-03-27T10:48:47.245Z,85426.16
2023-03-27T10:51:13.349Z,85427.41
2023-03-27T10:53:39.597Z,85416.19
2023-03-27T10:56:05.750Z,85424.03
2023-03-27T10:58:31.857Z,85423.13
2023-03-27T11:00:58.085Z,85430.28
2023-03-27T11:03:24.452Z,85442.22
2023-03-27T11:05:50.569Z,85443.28
2023-03-27T11:08:16.715Z,85431.63
2023-03-27T11:10:42.820Z,85444.22
2023-03-27T11:13:08.916Z,85458.50
2023-03-27T11:15:35.016Z,85461.34
2023-03-27T11:18:01.249Z,85473.66
2023-03-27T11:20:27.499Z,85461.59
2023-03-27T11:22:53.612Z,85485.03
2023-03-27T11:25:19.800Z,85492.97
2023-03-27T11:27:45.996Z,85487.63
2023-03-27T11:30:12.126Z,85494.75
2023-03-27T11:32:38.383Z,85499.75
2023-03-27T11:35:04.622Z,85504.53
2023-03-27T11:37:30.878Z,85521.06
2023-03-27T11:39:57.005Z,85519.56
2023-03-27T11:42:23.131Z,85519.34
2023-03-27T11:44:49.251Z,85533.53
2023-03-27T11:47:15.367Z,85529.88
2023-03-27T11:49:41.805Z,85540.03
2023-03-27T11:52:08.028Z,85536.47
2023-03-27T11:54:34.194Z,85535.75
2023-03-27T11:57:00.306Z,85531.75
2023-03-27T11:59:26.417Z,85526.03
2023-03-27T12:01:52.594Z,85523.69
2023-03-27T12:04:18.826Z,85521.44
2023-03-27T12:06:44.937Z,85521.19
2023-03-27T12:09:11.062Z,85518.91
2023-03-27T12:11:37.170Z,85535.78
2023-03-27T12:14:05.391Z,85531.56
2023-03-27T12:16:35.360Z,85533.19
2023-03-27T12:19:08.190Z,85540.69
2023-03-27T12:21:40.149Z,85527.69
2023-03-27T12:24:07.232Z,85526.97
2023-03-27T12:26:33.375Z,85530.53
2023-03-27T12:28:59.470Z,85529.34
2023-03-27T12:31:25.599Z,85525.69
2023-03-27T12:33:51.746Z,85525.06
2023-03-27T12:36:17.880Z,85530.59
2023-03-27T12:38:43.977Z,85520.63
2023-03-27T12:41:10.085Z,85515.94
2023-03-27T12:43:36.503Z,85513.81
2023-03-27T12:46:02.940Z,85509.34
2023-03-27T12:48:29.307Z,85513.06
2023-03-27T12:50:55.666Z,85506.00
2023-03-27T12:53:22.127Z,85511.78
2023-03-27T12:55:48.245Z,85508.91
2023-03-27T12:58:14.470Z,85505.66
2023-03-27T13:00:40.631Z,85512.72
2023-03-27T13:03:06.818Z,85533.63
2023-03-27T13:05:33.042Z,85541.66
2023-03-27T13:07:59.158Z,85541.16
2023-03-27T13:10:25.303Z,85541.19
2023-03-27T13:12:51.417Z,85536.19
2023-03-27T13:15:17.673Z,85537.59
2023-03-27T13:17:43.847Z,85549.97
2023-03-27T13:20:09.969Z,85549.28
2023-03-27T13:22:37.012Z,85551.63
2023-03-27T13:25:03.576Z,85555.13
2023-03-27T13:27:30.788Z,85549.72
2023-03-27T13:29:56.883Z,85557.66
2023-03-27T13:32:23.024Z,85557.09
2023-03-27T13:34:49.234Z,85549.72
2023-03-27T13:37:15.374Z,85552.59
2023-03-27T13:39:41.499Z,85560.00
2023-03-27T13:42:07.613Z,85553.03
2023-03-27T13:44:33.735Z,85563.28
2023-03-27T13:46:59.858Z,85552.47
2023-03-27T13:49:26.033Z,85561.59
2023-03-27T13:51:52.183Z,85559.44
2023-03-27T13:54:18.412Z,85557.81
2023-03-27T13:56:44.539Z,85564.66
2023-03-27T13:59:10.641Z,85561.34
2023-03-27T14:01:36.741Z,85559.97
2023-03-27T14:04:02.911Z,85556.88
2023-03-27T14:06:29.055Z,85563.03
2023-03-27T14:08:55.174Z,85575.59
2023-03-27T14:11:21.390Z,85581.50
2023-03-27T14:13:47.499Z,85575.50
2023-03-27T14:16:13.683Z,85595.19
2023-03-27T14:18:39.815Z,85595.50
2023-03-27T14:21:05.921Z,85593.03
2023-03-27T14:23:32.032Z,85599.81
2023-03-27T14:25:58.336Z,85597.03
2023-03-27T14:28:24.566Z,85593.34
2023-03-27T14:30:51.073Z,85588.69
2023-03-27T14:33:17.642Z,85581.53
2023-03-27T14:35:44.025Z,85594.59
2023-03-27T14:38:10.232Z,85595.78
2023-03-27T14:40:36.328Z,85589.09
2023-03-27T14:43:02.612Z,85596.69
2023-03-27T14:45:28.698Z,85584.56
2023-03-27T14:47:54.869Z,85593.31
2023-03-27T14:50:21.038Z,85587.16
2023-03-27T14:52:47.145Z,85601.53
2023-03-27T14:55:13.257Z,85603.03
2023-03-27T14:57:39.363Z,85605.41
2023-03-27T15:00:05.596Z,85606.34
2023-03-27T15:02:31.739Z,85613.81
2023-03-27T15:04:57.942Z,85606.16
2023-03-27T15:07:24.036Z,85610.13
2023-03-27T15:09:50.141Z,85617.13
2023-03-27T15:12:16.261Z,85610.06
2023-03-27T15:14:42.417Z,85614.03
2023-03-27T15:17:08.637Z,85614.84
2023-03-27T15:19:34.797Z,85611.47
2023-03-27T15:22:01.447Z,85619.34
2023-03-27T15:24:27.797Z,85620.28
2023-03-27T15:26:53.926Z,85618.44
2023-03-27T15:29:20.043Z,85609.81
2023-03-27T15:31:46.166Z,85615.88
2023-03-27T15:34:12.264Z,85629.56
2023-03-27T15:36:38.401Z,85636.22
2023-03-27T15:39:04.543Z,85638.25
2023-03-27T15:41:30.636Z,85645.38
2023-03-27T15:43:56.760Z,85637.16
2023-03-27T15:46:24.711Z,85643.00
2023-03-27T15:48:52.183Z,85645.66
2023-03-27T15:51:18.326Z,85656.06
2023-03-27T15:53:44.457Z,85657.22
2023-03-27T15:56:10.567Z,85664.53
2023-03-27T15:58:36.671Z,85665.59
2023-03-27T16:01:02.846Z,85669.22
2023-03-27T16:03:44.651Z,85686.59
2023-03-27T16:06:11.007Z,85691.94
2023-03-27T16:08:37.131Z,85699.41
2023-03-27T16:11:03.382Z,85694.03
2023-03-27T16:13:29.509Z,85704.50
2023-03-27T16:15:55.997Z,85694.38
2023-03-27T16:18:22.262Z,85710.41
2023-03-27T16:20:48.375Z,85710.03
2023-03-27T16:23:14.515Z,85722.31
2023-03-27T16:25:40.633Z,85716.78
2023-03-27T16:28:06.735Z,85731.00
2023-03-27T16:30:32.920Z,85734.34
2023-03-27T16:32:59.053Z,85736.50
2023-03-27T16:35:25.259Z,85741.22
2023-03-27T16:37:51.407Z,85739.28
2023-03-27T16:40:17.574Z,85744.72
2023-03-27T16:42:43.746Z,85750.56
2023-03-27T16:45:10.278Z,85755.19
2023-03-27T16:47:36.391Z,85746.72
2023-03-27T16:50:11.349Z,85753.53
2023-03-27T16:52:37.911Z,85758.69
2023-03-27T16:55:06.458Z,85759.56
2023-03-27T16:57:33.461Z,85771.38
2023-03-27T16:59:59.560Z,85762.59
2023-03-27T17:02:25.761Z,85772.63
2023-03-27T17:04:51.934Z,85773.94
2023-03-27T17:07:18.196Z,85773.88
2023-03-27T17:09:44.306Z,85778.31
2023-03-27T17:12:10.391Z,85792.16
2023-03-27T17:14:36.536Z,85793.44
2023-03-27T17:17:02.730Z,85796.06
2023-03-27T17:19:28.883Z,85806.97
2023-03-27T17:21:54.995Z,85804.56
2023-03-27T17:24:21.085Z,85805.03
2023-03-27T17:26:47.198Z,85823.25
2023-03-27T17:29:13.302Z,85817.31
2023-03-27T17:31:39.431Z,85829.91
2023-03-27T17:34:05.600Z,85842.28
2023-03-27T17:36:41.496Z,85846.72
2023-03-27T17:39:11.182Z,85847.88
2023-03-27T17:41:37.280Z,85859.34
2023-03-27T17:44:03.960Z,85866.66
2023-03-27T17:46:31.244Z,85868.09
2023-03-27T17:48:57.489Z,85884.19
2023-03-27T17:51:23.600Z,85877.34
2023-03-27T17:53:50.039Z,85882.94
2023-03-27T17:56:16.153Z,85885.66
2023-03-27T17:58:42.394Z,85894.41
2023-03-27T18:01:08.641Z,85896.28
2023-03-27T18:03:34.845Z,85894.09
2023-03-27T18:06:01.020Z,85902.72
2023-03-27T18:08:27.150Z,85907.59
2023-03-27T18:10:53.269Z,85909.31
2023-03-27T18:13:19.405Z,85914.78
2023-03-27T18:15:45.574Z,85912.34
2023-03-27T18:18:11.799Z,85922.34
2023-03-27T18:20:37.963Z,85932.59
2023-03-27T18:23:04.067Z,85931.28
2023-03-27T18:25:30.151Z,85927.50
2023-03-27T18:27:56.263Z,85933.66
2023-03-27T18:30:22.375Z,85931.97
2023-03-27T18:32:48.518Z,85944.28
2023-03-27T18:35:14.673Z,85959.91
2023-03-27T18:37:40.794Z,85962.84
2023-03-27T18:40:06.917Z,85974.50
2023-03-27T18:42:33.129Z,85978.72
2023-03-27T18:44:59.278Z,85981.19
2023-03-27T18:47:25.409Z,85985.38
2023-03-27T18:49:51.513Z,85992.72
2023-03-27T18:52:17.671Z,85986.78
2023-03-27T18:54:43.783Z,85988.69
2023-03-27T18:57:09.915Z,85996.47
2023-03-27T18:59:36.033Z,86000.31
2023-03-27T19:02:02.286Z,86009.06
2023-03-27T19:04:28.435Z,86011.94
2023-03-27T19:06:54.536Z,86011.81
2023-03-27T19:09:23.480Z,86011.22
2023-03-27T19:11:57.392Z,86010.13
2023-03-27T19:14:23.535Z,86016.16
2023-03-27T19:16:49.652Z,86016.06
2023-03-27T19:19:15.764Z,86022.16
2023-03-27T19:21:41.860Z,86025.19
2023-03-27T19:24:07.956Z,86032.50
2023-03-27T19:26:34.080Z,86033.28
2023-03-27T19:29:00.188Z,86034.56
2023-03-27T19:31:26.308Z,86031.91
2023-03-27T19:33:52.478Z,86033.38
2023-03-27T19:36:19.378Z,86033.63
2023-03-27T19:38:45.608Z,86031.34
2023-03-27T19:41:11.699Z,86032.72
2023-03-27T19:43:37.813Z,86030.59
2023-03-27T19:46:15.739Z,86039.50
2023-03-27T19:48:42.890Z,86041.78
2023-03-27T19:51:09.000Z,86055.16
2023-03-27T19:53:35.099Z,86058.63
2023-03-27T19:56:01.211Z,86064.66
2023-03-27T19:58:27.332Z,86072.75
2023-03-27T20:00:53.429Z,86071.19
2023-03-27T20:03:19.650Z,86071.63
2023-03-27T20:05:45.875Z,86071.03
2023-03-27T20:08:11.964Z,86070.53
2023-03-27T20:10:38.043Z,86073.69
2023-03-27T20:13:04.168Z,86072.84
2023-03-27T20:15:30.286Z,86069.72
2023-03-27T20:17:56.441Z,86071.28
2023-03-27T20:20:22.559Z,86073.28
2023-03-27T20:25:17.684Z,86071.53
2023-03-27T20:27:43.855Z,86075.59
2023-03-27T20:30:09.961Z,86078.78
2023-03-27T20:32:36.119Z,86077.59
2023-03-27T20:35:07.435Z,86080.63
2023-03-27T20:37:39.245Z,86075.00
2023-03-27T20:40:05.369Z,86085.19
2023-03-27T20:42:31.481Z,86081.47
2023-03-27T20:44:57.597Z,86083.63
2023-03-27T20:47:23.740Z,86081.91
2023-03-27T20:49:49.848Z,86081.50
2023-03-27T20:52:15.983Z,86085.78
2023-03-27T20:54:42.124Z,86081.91
2023-03-27T20:57:08.340Z,86088.53
2023-03-27T20:59:34.488Z,86086.50
2023-03-27T21:02:00.642Z,86090.69
2023-03-27T21:04:26.767Z,86091.53
2023-03-27T21:06:52.868Z,86098.44
2023-03-27T21:09:18.996Z,86099.59
2023-03-27T21:11:45.254Z,86096.16
2023-03-27T21:14:11.361Z,86101.03
2023-03-27T21:16:37.582Z,86102.75
2023-03-27T21:19:03.762Z,86102.59
2023-03-27T21:21:29.892Z,86103.19
2023-03-27T21:23:55.986Z,86110.25
2023-03-27T21:26:22.076Z,86110.34
2023-03-27T21:28:48.264Z,86110.78
2023-03-27T21:31:14.392Z,86115.13
2023-03-27T21:33:40.472Z,86112.38
2023-03-27T21:36:06.629Z,86114.41
2023-03-27T21:38:32.889Z,86110.34
2023-03-27T21:40:58.976Z,86114.81
2023-03-27T21:43:25.086Z,86117.09
2023-03-27T21:45:51.332Z,86116.94
2023-03-27T21:48:17.503Z,86124.28
2023-03-27T21:50:43.620Z,86116.94
2023-03-27T21:53:09.749Z,86120.34
2023-03-27T21:55:35.893Z,86120.63
2023-03-27T21:58:01.998Z,86124.50
2023-03-27T22:00:28.098Z,86115.66
2023-03-27T22:02:54.293Z,86115.50
2023-03-27T22:05:20.561Z,86119.66
2023-03-27T22:07:46.643Z,86120.38
2023-03-27T22:10:12.719Z,86121.81
2023-03-27T22:12:38.844Z,86118.88
2023-03-27T22:15:04.972Z,86121.38
2023-03-27T22:17:31.174Z,86134.09
2023-03-27T22:19:57.331Z,86122.09
2023-03-27T22:22:23.468Z,86126.28
2023-03-27T22:24:49.565Z,86127.59
2023-03-27T22:27:15.646Z,86124.94
2023-03-27T22:29:42.067Z,86126.00
2023-03-27T22:32:08.199Z,86127.50
2023-03-27T22:34:34.287Z,86130.84
2023-03-27T22:37:00.392Z,86126.94
2023-03-27T22:39:26.529Z,86125.09
2023-03-27T22:41:52.608Z,86124.28
2023-03-27T22:44:18.698Z,86126.44
2023-03-27T22:46:44.830Z,86125.25
2023-03-27T22:49:10.960Z,86133.59
2023-03-27T22:51:37.068Z,86137.31
2023-03-27T22:54:03.168Z,86130.19
2023-03-27T22:56:29.274Z,86140.00
2023-03-27T22:58:55.379Z,86140.59
2023-03-27T23:01:21.619Z,86141.31
2023-03-27T23:03:47.871Z,86145.06
2023-03-27T23:06:14.048Z,86144.66
2023-03-27T23:08:40.149Z,86142.22
2023-03-27T23:11:06.268Z,86151.09
2023-03-27T23:13:32.371Z,86149.84
2023-03-27T23:15:58.775Z,86149.69
2023-03-27T23:18:25.035Z,86149.88
2023-03-27T23:20:51.131Z,86150.44
2023-03-27T23:23:17.224Z,86153.72
2023-03-27T23:25:43.347Z,86156.28
2023-03-27T23:28:09.452Z,86154.97
2023-03-27T23:30:35.545Z,86161.50
2023-03-27T23:33:01.706Z,86161.66
2023-03-27T23:35:27.854Z,86159.75
2023-03-27T23:37:53.977Z,86164.03
2023-03-27T23:40:20.130Z,86167.56
2023-03-27T23:42:46.278Z,86176.56
2023-03-27T23:45:12.366Z,86174.13
2023-03-27T23:47:38.602Z,86173.56
2023-03-27T23:50:04.721Z,86185.53
2023-03-27T23:52:30.825Z,86185.53
2023-03-27T23:54:56.967Z,86187.72
2023-03-27T23:57:23.098Z,86189.63
2023-03-27T23:59:49.243Z,86193.19
